Pagina principale
METAR-TAF:

METAR-TAF

Aeroporti :

Ísafjörður, Islanda

latitudine: 66-03-29N, longitudine: 23-08-07W, altezza: 2 m

Osservazione

Il bollettino è stato emesso 10 ore e 37 minuti fa, alle 18:00 UTC
Vento 8 kt da nord/nord-est
Temperature -3°C
Umidità 58%
Pressione 1024 hPa
Visibilità 10 km o più
Poco nuvoloso ad un'altezza di 3000 ft

METAR: BIIS 011800Z 02008KT 9999 FEW030 M03/M10 Q1024

Ora: 04:37 (04:37 UTC)

Previsione

Il bollettino è stato emesso 12 ore e 32 minuti fa, alle 16:05 UTC
Previsione valida dal 01 alle 17 UTC al 01 alle 19 UTC
Vento 13 kt da nord-est
Visibilità 10 km o più
Poco nuvoloso ad un'altezza di 2500 ft
Nubi sparse ad un'altezza di 4000 ft
Evoluzione graduale
dal 01 alle 17 UTC al 01 alle 19 UTC
Vento 2 kt da direzioni variabili

TAF: BIIS 011605Z 0117/0119 04013KT 9999 FEW025 SCT040 BECMG 0117/0119 VRB02KT

Osservazioni e previsioni meteorologiche di più di 4000 aeroporti (messaggi METAR e TAF).

Le stazioni disponibili sono rappresentate dai dischi gialli e rossi sulla carta.

Puntare il mouse per vedere il nome della stazione.

Clicca sopra per visualizzare le osservazioni e previsioni meteorologiche.

Per cambiare la mappa : fare clic sui pulsanti verdi con una croce nera per ingrandire, il pulsante verde con un trattino per diminuire, o sulla freccia verde per le mappe adiacenti.


METAR-TAF: